マイアミ の空港の天気 - METARとTAF

マイアミ国際空港 ( KMIA / MIA ) - アメリカ フロリダ州マイアミ
飛行場実況気象(Metar)
観測時間01/19 21:53 EST (01/20 02:53 UTC)
風向・風速不定 2m/s
視程10km以上
天気現象
全天の4割程度の雲 雲底高度 7620m
気温21.1℃
湿度87%
気圧1014.4hPa
METARKMIA 200253Z VRB04KT 10SM SCT250 21/19 A2996 RMK AO2 SLP144 T02110189 58003
過去の天気等 Google飛行場航空写真 Wunderground天気予報

過去48時間のMETAR

飛行場予報(TAF)
発表時間: 1/19 21:36 EST (1/20 02:36 UTC)
予報対象時間: 19日22時 EST ~ 21日1時 EST
風向・風速南南東 5m/s
視程10km以上
全天の4割程度の雲 雲底高度 1070m
全天の4割程度の雲 雲底高度 6100m
20日6時 EST から
風向・風速南南西 4m/s
視程10km以上
天気現象周辺でしゅう雨
全天の4割程度の雲 雲底高度 1070m
全天の8割程度の雲 雲底高度 4570m
20日10時 EST から
風向・風速西 5m/s
視程10km以上
天気現象周辺でしゅう雨
全天の4割程度の雲 雲底高度 1070m
全天を覆う雲 雲底高度 1520m
20日13時 EST から
風向・風速西北西 6m/s
視程10km以上
天気現象周辺でしゅう雨
全天の8割程度の雲 雲底高度 910m
KMIA 200236Z 2003/2106 16010KT P6SM SCT035 SCT200
FM201100 21008KT P6SM VCSH SCT035 BKN150
FM201500 26010KT P6SM VCSH SCT035 OVC050
FM201800 30011KT P6SM VCSH BKN030